ECLK1: Elk City Lake

Data processed at Tue May 21 2019 21:30


All information presented herein is the property of the government of the United States of America and may be revised or deleted at any time without prior notice.
Dissemination of this information without the expressed written consent of the Public Affairs Office, Tulsa District U.S. Army Corps of Engineers is strictly prohibited.
These data are gathered electronically and, as presented, have not undergone any form of quality control. These data are not guaranteed to be valid or correct.
Go to home page.
Go to station list.
Go to home page.

Upstream stations:

Downstream station:
Previous Day
Next Day
Current Day
    
SHEF ID:       ECLK1     Elk City Lake
STATION TYPE:  RESERVOIR
Flood Pool:  Bottom =   796.00, Top =   825.00

               PRECIP ELEVATION   STORAGE    INFLOW   RELEASE  AIR-TEMP  WIND-DIRWIND-SPEED REL-HUMID SOLAR-RAD   VOLTAGE  BAT-LOAD
                   in        ft     ac-ft       cfs       cfs         F       deg       mph         %      W/m2      volt      volt
              Ccp-Rev   Ccp-Rev   Ccp-Rev  Rev-Regi  Rev-Regi   Ccp-Rev   Ccp-Rev   Ccp-Rev   Ccp-Rev   Ccp-Rev   Ccp-Rev   Ccp-Rev
(US/Central)
05/21 00:00      0.14    812.12    128825     23825        38     53.56    243.74      5.62    100.33      0.00     13.40     12.91
05/21 01:00      0.14    812.35    130771     24200        38     53.71    161.27      4.83    100.33      0.00     13.38     12.96
05/21 02:00      0.13    812.59    132801     25003        38     53.98    151.85      4.00    100.34      0.00     13.54     12.94
05/21 03:00      0.13    812.87    135170     24807        38     53.98    143.38      5.45    100.34      0.00     13.44     13.02
05/21 04:00      0.12    813.10    137142     24952        38     55.26    143.57      6.87    100.33      0.00     13.55     12.93
05/21 05:00      0.11    813.32    139060     27847        38     57.25    142.20      5.88    100.33      0.00     13.56     12.90
05/21 06:00      0.10    813.55    141066     30307        39     58.77    152.06      4.27    100.33      0.00     13.30     12.98
05/21 07:00      0.10    813.92    144292     33342        39     59.77    211.38     10.73    100.33      0.00     13.30     12.93
05/21 08:00      0.13    814.30    147678     34771        39     59.31    278.57      2.59    100.33      0.00     13.56     12.90
05/21 09:00      0.15    814.66    150904     38358        39     58.91     28.84      2.22    100.33      3.86     13.30     13.04
05/21 10:00      0.13    814.94    153412     37913        39     59.14     34.91      6.18    100.33      0.01     13.30     12.90
05/21 11:00      0.13    815.32    156900     37530        39     58.91    327.19      7.28    100.33     15.40     13.57     12.90
05/21 12:00      0.12    815.65    159943     38901        39     59.86    148.47      5.15    100.33     34.19     13.66     12.87
05/21 13:00      0.10    816.00    163170     42235        39     61.23    151.55      6.85    100.33     36.57     13.56     12.93
05/21 14:00      0.12    816.40    166962     43103        40     64.56    161.93      8.17    100.33    157.35     13.55     12.90
05/21 15:00      0.10    816.81    170849     45876        40     68.00    157.77     14.69     95.94    608.00     13.54     12.96
05/21 16:00      0.01    817.21    174695     48006        40     70.75    181.14     17.38     75.60    513.38     13.28     12.96
05/21 17:00      0.00    817.64    178884     48519        40     72.34    190.05     20.48     61.73    401.20     13.29     12.92
05/21 18:00      0.00    818.06    182991     49287        40     73.60    193.18     17.95     48.70    362.10     13.64     12.90
05/21 19:00      0.00    818.46    186995     49628        40     73.94    192.51     15.71     42.66    221.01     13.58     12.96
05/21 20:00      0.00    818.88    191199     49667        40     72.55    166.22     12.30     43.30     65.21     13.55     12.96
05/21 21:00      0.00    819.27    195186     48854        41     70.23    155.83     15.96     49.08      0.00     13.55     12.96
05/21 22:00      ----      ----      ----      ----      ----      ----      ----      ----      ----      ----      ----      ----
05/21 23:00      ----      ----      ----      ----      ----      ----      ----      ----      ----      ----      ----      ----